Flight Track Log - Related Links

Times and Time Zones

All times are in EDT time to prevent confusion due to time zone crossing. See the SWA896 flight status page for this flight to view local times or setup timezone preferences in your user account.

Time Position Orientation Groundspeed Altitude Reporting Facility
EDT Latitude Longitude Course Direction KTS MPH feet Rate Location/Type
Thu 08:01:29 AM 42.9333 -78.7500 216° Southwest 173 199 1,300  Level Buffalo TRACON
Thu 08:01:59 AM 42.9167 -78.7667 216° Southwest 177 204 2,600 2,200 Climbing Buffalo TRACON
Thu 08:02:59 AM 42.8833 -78.8333 236° Southwest 228 262 4,600 2,263 Climbing Buffalo TRACON
Thu 08:04:46 AM 42.8683 -78.9997 263° West 275 316 8,900 1,976 Climbing Cleveland Center
Thu 08:05:46 AM 42.8614 -79.1019 265° West 275 316 10,100 750 Climbing Cleveland Center
Thu 08:06:46 AM 42.8461 -79.2239 260° West 303 349 10,400 1,400 Climbing Cleveland Center
Thu 08:07:46 AM 42.8289 -79.3489 259° West 321 369 12,900 2,600 Climbing Cleveland Center
Thu 08:08:46 AM 42.8092 -79.4794 258° West 341 392 15,600 2,450 Climbing Cleveland Center
Thu 08:09:46 AM 42.7875 -79.6156 258° West 355 409 17,800 2,250 Climbing Cleveland Center
Thu 08:10:46 AM 42.7489 -79.7464 248° West 362 417 20,100 2,200 Climbing Cleveland Center
Thu 08:11:46 AM 42.6894 -79.8742 238° Southwest 379 436 22,200 2,050 Climbing Cleveland Center
Thu 08:12:46 AM 42.6256 -80.0075 237° Southwest 404 465 24,200 1,800 Climbing Cleveland Center
Thu 08:13:46 AM 42.5969 -80.1631 256° West 413 475 25,800 1,600 Climbing Cleveland Center
Thu 08:14:46 AM 42.5828 -80.3294 263° West 430 495 27,400 1,450 Climbing Cleveland Center
Thu 08:15:46 AM 42.5644 -80.4931 261° West 437 503 28,700 1,400 Climbing Cleveland Center
Thu 08:16:46 AM 42.5456 -80.6650 262° West 457 526 30,200 1,650 Climbing Cleveland Center
Thu 08:17:46 AM 42.5286 -80.8367 262° West 466 536 32,000 900 Climbing Cleveland Center
Thu 08:18:46 AM 42.5053 -81.0169 260° West 466 536 32,000  Level Cleveland Center
Thu 08:19:46 AM 42.4878 -81.1858 262° West 458 527 32,000  Level Cleveland Center
Thu 08:20:46 AM 42.4681 -81.3489 261° West 449 517 32,000  Level Cleveland Center
Thu 08:21:46 AM 42.4481 -81.5089 260° West 442 509 32,000 100 Level Cleveland Center
Thu 08:22:46 AM 42.4300 -81.6689 261° West 442 509 32,200 950 Climbing Cleveland Center
Thu 08:23:46 AM 42.4075 -81.8344 260° West 447 514 33,900 1,550 Climbing Cleveland Center
Thu 08:24:46 AM 42.3889 -81.9972 261° West 447 514 35,300 1,050 Climbing Cleveland Center
Thu 08:25:46 AM 42.3681 -82.1542 260° West 441 507 36,000 350 Climbing Cleveland Center
Thu 08:26:46 AM 42.3492 -82.3194 261° West 441 507 36,000  Level Cleveland Center
Thu 08:27:46 AM 42.3281 -82.4733 260° West 441 507 36,000  Level Cleveland Center
Thu 08:28:46 AM 42.3064 -82.6328 260° West 435 501 36,000  Level Cleveland Center
Thu 08:29:46 AM 42.2867 -82.7919 261° West 435 501 36,000  Level Cleveland Center
Thu 08:30:46 AM 42.2647 -82.9542 260° West 435 501 36,000  Level Cleveland Center
Thu 08:31:46 AM 42.2428 -83.1103 259° West 435 501 36,000  Level Cleveland Center
Thu 08:32:46 AM 42.2247 -83.2611 261° West 446 513 36,000  Level Cleveland Center
Thu 08:33:46 AM 42.2019 -83.4228 259° West 446 513 36,000  Level Cleveland Center
Thu 08:34:46 AM 42.1817 -83.5647 259° West 441 507 36,000  Level Cleveland Center
Thu 08:35:46 AM 42.1561 -83.7456 259° West 448 516 36,000  Level Cleveland Center
Thu 08:36:46 AM 42.1347 -83.9069 260° West 448 516 36,000  Level Cleveland Center
Thu 08:38:57 AM 42.0858 -84.2631 260° West 434 499 36,000  Level Chicago Center
Thu 08:39:59 AM 42.0617 -84.4236 259° West 439 505 36,000  Level Chicago Center
Thu 08:41:01 AM 42.0386 -84.5825 259° West 436 502 36,000  Level Chicago Center
Thu 08:42:03 AM 42.0158 -84.7431 259° West 439 505 36,000  Level Chicago Center
Thu 08:43:05 AM 41.9922 -84.9044 259° West 442 509 36,000  Level Chicago Center
Thu 08:44:07 AM 41.9639 -85.0967 259° West 441 507 36,000  Level Chicago Center
Thu 08:45:09 AM 41.9397 -85.2556 258° West 440 506 36,000  Level Chicago Center
Thu 08:46:11 AM 41.9158 -85.4142 259° West 439 505 36,000  Level Chicago Center
Thu 08:47:13 AM 41.8917 -85.5731 259° West 439 505 36,000  Level Chicago Center
Thu 08:48:15 AM 41.8647 -85.7292 257° West 439 505 36,000  Level Chicago Center
Thu 08:49:17 AM 41.8347 -85.9197 258° West 442 509 36,000  Level Chicago Center
Thu 08:50:19 AM 41.8081 -86.0789 257° West 441 507 36,000  Level Chicago Center
Thu 08:51:22 AM 41.7819 -86.2392 258° West 442 509 36,000  Level Chicago Center
Thu 08:52:24 AM 41.7597 -86.4003 260° West 443 510 36,000  Level Chicago Center
Thu 08:53:26 AM 41.7456 -86.5631 263° West 443 510 36,000  Level Chicago Center
Thu 08:54:28 AM 41.7231 -86.7506 261° West 440 506 36,000  Level Chicago Center
Thu 08:55:30 AM 41.7061 -86.9131 262° West 443 510 36,000  Level Chicago Center
Thu 08:56:32 AM 41.6883 -87.0753 262° West 443 510 36,000  Level Chicago Center
Thu 08:57:34 AM 41.6611 -87.2353 257° West 445 512 36,000  Level Chicago Center
Thu 08:58:36 AM 41.6222 -87.4239 255° West 443 510 36,000  Level Chicago Center
Thu 08:59:38 AM 41.5903 -87.5814 255° West 443 510 36,000  Level Chicago Center
Thu 09:00:40 AM 41.5581 -87.7386 255° West 444 511 36,000  Level Chicago Center
Thu 09:01:43 AM 41.5275 -87.8906 255° West 433 498 36,000  Level Chicago Center
Thu 09:02:45 AM 41.4897 -88.0522 253° West 457 526 36,000  Level Chicago Center
Thu 09:03:47 AM 41.4414 -88.2242 249° West 443 510 36,000  Level Chicago Center
Thu 09:04:49 AM 41.3992 -88.3756 250° West 443 510 36,000  Level Chicago Center
Thu 09:05:51 AM 41.3481 -88.5575 250° West 442 509 36,000  Level Chicago Center
Thu 09:06:53 AM 41.3053 -88.7094 249° West 442 509 36,000  Level Chicago Center
Thu 09:07:55 AM 41.2631 -88.8619 250° West 443 510 36,000  Level Chicago Center
Thu 09:08:57 AM 41.2208 -89.0142 250° West 441 507 36,000  Level Chicago Center
Thu 09:09:59 AM 41.1778 -89.1650 249° West 440 506 36,000  Level Chicago Center
Thu 09:11:01 AM 41.1297 -89.3336 249° West 437 503 36,000  Level Chicago Center
Thu 09:12:03 AM 41.0872 -89.4822 249° West 435 501 36,000  Level Chicago Center
Thu 09:13:05 AM 41.0444 -89.6308 249° West 435 501 36,000  Level Chicago Center
Thu 09:14:08 AM 40.9986 -89.7911 249° West 439 505 36,000  Level Chicago Center
Thu 09:15:10 AM 40.9556 -89.9400 249° West 438 504 36,000  Level Chicago Center
Thu 09:16:12 AM 40.9031 -90.1178 249° West 434 499 36,000  Level Chicago Center
Thu 09:17:14 AM 40.8625 -90.2533 248° West 436 502 36,000  Level Chicago Center
Thu 09:18:16 AM 40.8181 -90.4011 248° West 435 501 36,000  Level Chicago Center
Thu 09:19:18 AM 40.7742 -90.5519 249° West 444 511 36,000  Level Chicago Center
Thu 09:20:20 AM 40.7186 -90.7294 248° West 439 505 36,000  Level Chicago Center
Thu 09:21:22 AM 40.6764 -90.8800 250° West 440 506 36,000  Level Chicago Center
Thu 09:22:24 AM 40.6453 -91.0344 255° West 440 506 36,000  Level Chicago Center
Thu 09:23:26 AM 40.6117 -91.1889 254° West 439 505 36,000  Level Chicago Center
Thu 09:24:20 AM 40.5797 -91.3333 254° West 439 505 36,000  Level Kansas City Center
Thu 09:25:22 AM 40.5453 -91.4864 254° West 439 505 36,000  Level Kansas City Center
Thu 09:26:25 AM 40.5111 -91.6394 254° West 440 506 36,000  Level Kansas City Center
Thu 09:27:25 AM 40.4769 -91.7922 254° West 440 506 36,000  Level Kansas City Center
Thu 09:28:29 AM 40.4367 -91.9753 254° West 439 505 36,000  Level Kansas City Center
Thu 09:29:29 AM 40.4025 -92.1272 254° West 439 505 36,000  Level Kansas City Center
Thu 09:30:33 AM 40.3683 -92.2786 254° West 439 505 36,000  Level Kansas City Center
Thu 09:31:33 AM 40.3294 -92.4481 253° West 437 503 36,000  Level Kansas City Center
Thu 09:32:35 AM 40.2978 -92.5903 254° West 436 502 36,000  Level Kansas City Center
Thu 09:33:39 AM 40.2586 -92.7639 254° West 442 509 36,000  Level Kansas City Center
Thu 09:34:41 AM 40.2208 -92.9147 252° West 451 519 36,000  Level Kansas City Center
Thu 09:35:41 AM 40.1853 -93.0622 253° West 454 522 36,000  Level Kansas City Center
Thu 09:36:45 AM 40.1417 -93.2478 253° West 451 519 36,000  Level Kansas City Center
Thu 09:37:47 AM 40.1061 -93.4036 253° West 451 519 36,000  Level Kansas City Center
Thu 09:38:48 AM 40.0683 -93.5578 252° West 450 518 36,000  Level Kansas City Center
Thu 09:39:49 AM 40.0314 -93.7136 253° West 453 521 36,000  Level Kansas City Center
Thu 09:40:53 AM 39.9903 -93.8739 252° West 456 525 36,000  Level Kansas City Center
Thu 09:41:53 AM 39.9464 -94.0558 253° West 453 521 36,000  Level Kansas City Center
Thu 09:42:56 AM 39.9061 -94.2117 251° West 453 521 36,000  Level Kansas City Center
Thu 09:43:58 AM 39.8697 -94.3639 253° West 461 531 36,000  Level Kansas City Center
Thu 09:44:59 AM 39.8253 -94.5389 252° West 458 527 36,000  Level Kansas City Center
Thu 09:46:03 AM 39.7886 -94.6881 252° West 455 524 36,000  Level Kansas City Center
Thu 09:47:04 AM 39.7447 -94.8614 252° West 454 522 36,000  Level Kansas City Center
Thu 09:48:07 AM 39.7075 -95.0089 252° West 451 519 36,000  Level Kansas City Center
Thu 09:49:09 AM 39.6628 -95.1822 252° West 456 525 36,000  Level Kansas City Center
Thu 09:50:10 AM 39.6242 -95.3308 251° West 457 526 36,000  Level Kansas City Center
Thu 09:51:14 AM 39.5792 -95.5058 252° West 461 531 36,000  Level Kansas City Center
Thu 09:52:14 AM 39.5400 -95.6561 251° West 464 534 36,000  Level Kansas City Center
Thu 09:53:17 AM 39.4922 -95.8344 251° West 468 539 36,000  Level Kansas City Center
Thu 09:54:19 AM 39.4508 -95.9864 251° West 468 539 36,000  Level Kansas City Center
Thu 09:55:22 AM 39.4089 -96.1431 251° West 471 542 36,000  Level Kansas City Center
Thu 09:56:22 AM 39.3564 -96.3361 251° West 474 545 36,000  Level Kansas City Center
Thu 09:57:25 AM 39.3131 -96.4975 251° West 473 544 36,000  Level Kansas City Center
Thu 09:58:27 AM 39.2708 -96.6492 250° West 471 542 36,000  Level Kansas City Center
Thu 09:59:28 AM 39.2233 -96.8267 251° West 469 540 36,000  Level Kansas City Center
Thu 10:00:32 AM 39.1806 -96.9794 250° West 472 543 36,000  Level Kansas City Center
Thu 10:01:34 AM 39.1306 -97.1558 250° West 471 542 36,000  Level Kansas City Center
Thu 10:02:35 AM 39.0897 -97.3094 251° West 472 543 36,000  Level Kansas City Center
Thu 10:03:38 AM 39.0394 -97.4858 250° West 472 543 36,000  Level Kansas City Center
Thu 10:04:39 AM 38.9967 -97.6367 250° West 470 541 36,000  Level Kansas City Center
Thu 10:05:42 AM 38.9456 -97.8106 249° West 467 537 36,000  Level Kansas City Center
Thu 10:06:43 AM 38.9067 -97.9469 250° West 465 535 36,000  Level Kansas City Center
Thu 10:07:46 AM 38.8631 -98.1017 250° West 464 534 36,000  Level Kansas City Center
Thu 10:08:47 AM 38.8094 -98.2858 250° West 461 531 36,000  Level Kansas City Center
Thu 10:09:48 AM 38.7644 -98.4392 249° West 462 532 36,000  Level Kansas City Center
Thu 10:10:51 AM 38.7200 -98.5928 250° West 463 533 36,000  Level Kansas City Center
Thu 10:11:55 AM 38.6744 -98.7467 249° West 464 534 36,000  Level Kansas City Center
Thu 10:12:56 AM 38.6283 -98.9008 249° West 465 535 36,000  Level Kansas City Center
Thu 10:13:57 AM 38.5717 -99.0881 249° West 470 541 36,000  Level Kansas City Center
Thu 10:15:00 AM 38.5261 -99.2450 250° West 472 543 36,000  Level Kansas City Center
Thu 10:16:01 AM 38.4781 -99.4017 249° West 474 545 36,000  Level Kansas City Center
Thu 10:17:02 AM 38.4286 -99.5631 249° West 475 547 36,000  Level Kansas City Center
Thu 10:18:05 AM 38.3756 -99.7386 249° West 475 547 36,000  Level Kansas City Center
Thu 10:19:09 AM 38.3292 -99.8875 248° West 474 545 36,000  Level Kansas City Center
Thu 10:20:09 AM 38.2739 -100.0611 248° West 474 545 36,000  Level Kansas City Center
Thu 10:21:13 AM 38.2275 -100.2100 248° West 474 545 36,000  Level Kansas City Center
Thu 10:22:13 AM 38.1736 -100.3833 248° West 473 544 36,000 195 Level Kansas City Center
Thu 10:23:16 AM 38.1275 -100.5322 249° West 474 545 36,400 960 Climbing Kansas City Center
Thu 10:24:18 AM 38.0719 -100.7042 248° West 475 547 38,000 780 Climbing Kansas City Center
Thu 10:25:19 AM 38.0258 -100.8511 248° West 472 543 38,000  Level Kansas City Center
Thu 10:26:23 AM 37.9703 -101.0231 248° West 475 547 38,000  Level Kansas City Center
Thu 10:27:24 AM 37.9225 -101.1714 248° West 479 551 38,000  Level Kansas City Center
Thu 10:28:24 AM 37.8658 -101.3436 247° West 479 551 38,000  Level Kansas City Center
Thu 10:29:28 AM 37.8178 -101.4911 248° West 478 550 38,000  Level Kansas City Center
Thu 10:30:31 AM 37.7611 -101.6631 247° West 477 549 38,000  Level Kansas City Center
Thu 10:31:30 AM 37.7128 -101.8089 247° West 474 545 38,000  Level Kansas City Center
Thu 10:32:34 AM 37.6558 -101.9792 247° West 473 544 38,000  Level Kansas City Center
Thu 10:33:34 AM 37.6075 -102.1250 247° West 473 544 38,000  Level Kansas City Center
Thu 10:34:38 AM 37.5600 -102.2697 248° West 470 541 38,000  Level Kansas City Center
Thu 10:35:40 AM 37.5022 -102.4403 247° West 473 544 38,000  Level Kansas City Center
Thu 10:36:41 AM 37.4517 -102.5853 246° West 473 544 38,000  Level Kansas City Center
Thu 10:38:11 AM 37.3739 -102.8206 247° West 474 545 38,000  Level Albuquerque Center
Thu 10:39:13 AM 37.3150 -102.9908 247° West 475 547 38,000  Level Albuquerque Center
Thu 10:40:15 AM 37.2644 -103.1372 247° West 475 547 38,000  Level Albuquerque Center
Thu 10:41:17 AM 37.2050 -103.3083 246° West 477 549 38,000  Level Albuquerque Center
Thu 10:42:19 AM 37.1539 -103.4542 246° West 476 548 38,000  Level Albuquerque Center
Thu 10:43:22 AM 37.0947 -103.6231 246° West 472 543 38,000  Level Albuquerque Center
Thu 10:44:24 AM 37.0436 -103.7661 246° West 470 541 38,000  Level Albuquerque Center
Thu 10:45:26 AM 36.9933 -103.9081 246° West 466 536 38,000  Level Albuquerque Center
Thu 10:46:28 AM 36.9350 -104.0756 246° West 467 537 38,000  Level Albuquerque Center
Thu 10:47:30 AM 36.8836 -104.2169 246° West 466 536 38,000  Level Albuquerque Center
Thu 10:48:32 AM 36.8239 -104.3819 246° West 466 536 38,000  Level Albuquerque Center
Thu 10:49:34 AM 36.7731 -104.5231 246° West 465 535 38,000  Level Albuquerque Center
Thu 10:50:36 AM 36.7128 -104.6869 245° Southwest 465 535 38,000  Level Albuquerque Center
Thu 10:51:38 AM 36.6633 -104.8258 246° West 467 537 38,000  Level Albuquerque Center
Thu 10:52:40 AM 36.6083 -104.9719 245° Southwest 465 535 38,000  Level Albuquerque Center
Thu 10:53:42 AM 36.5450 -105.1442 245° Southwest 466 536 38,000  Level Albuquerque Center
Thu 10:54:44 AM 36.4989 -105.2711 246° West 462 532 38,000  Level Albuquerque Center
Thu 10:55:46 AM 36.4386 -105.4331 245° Southwest 461 531 38,000  Level Albuquerque Center
Thu 10:56:48 AM 36.3800 -105.5867 245° Southwest 464 534 38,000  Level Albuquerque Center
Thu 10:57:50 AM 36.3269 -105.7258 245° Southwest 453 521 38,000  Level Albuquerque Center
Thu 10:58:52 AM 36.2750 -105.8644 245° Southwest 447 514 38,000  Level Albuquerque Center
Thu 10:59:55 AM 36.2239 -106.0033 246° West 445 512 38,000  Level Albuquerque Center
Thu 11:00:57 AM 36.1711 -106.1408 245° Southwest 443 510 38,000  Level Albuquerque Center
Thu 11:01:59 AM 36.1194 -106.2792 245° Southwest 444 511 38,000  Level Albuquerque Center
Thu 11:03:01 AM 36.0553 -106.4450 244° Southwest 447 514 38,000  Level Albuquerque Center
Thu 11:04:03 AM 36.0019 -106.5833 245° Southwest 448 516 38,000  Level Albuquerque Center
Thu 11:05:05 AM 35.9483 -106.7211 244° Southwest 449 517 38,000  Level Albuquerque Center
Thu 11:06:07 AM 35.8889 -106.8739 244° Southwest 448 516 38,000  Level Albuquerque Center
Thu 11:07:09 AM 35.8375 -107.0067 245° Southwest 447 514 38,000  Level Albuquerque Center
Thu 11:08:11 AM 35.7761 -107.1608 244° Southwest 448 516 38,000  Level Albuquerque Center
Thu 11:09:13 AM 35.7244 -107.2925 244° Southwest 447 514 38,000  Level Albuquerque Center
Thu 11:10:15 AM 35.6644 -107.4461 244° Southwest 445 512 38,000  Level Albuquerque Center
Thu 11:11:17 AM 35.6108 -107.5803 244° Southwest 451 519 38,000  Level Albuquerque Center
Thu 11:12:19 AM 35.5483 -107.7372 244° Southwest 456 525 38,000  Level Albuquerque Center
Thu 11:13:21 AM 35.4939 -107.8725 244° Southwest 458 527 38,000 -387 Level Albuquerque Center
Thu 11:14:23 AM 35.4386 -108.0089 244° Southwest 461 531 37,200 -919 Descending Albuquerque Center
Thu 11:15:25 AM 35.3744 -108.1664 243° Southwest 461 531 36,100 -576 Descending Albuquerque Center
Thu 11:16:28 AM 35.3208 -108.2994 244° Southwest 456 525 36,000 -48 Descending Albuquerque Center
Thu 11:17:30 AM 35.2572 -108.4539 243° Southwest 453 521 36,000  Level Albuquerque Center
Thu 11:18:32 AM 35.2022 -108.5875 243° Southwest 456 525 36,000  Level Albuquerque Center
Thu 11:19:34 AM 35.1389 -108.7422 243° Southwest 456 525 36,000  Level Albuquerque Center
Thu 11:20:36 AM 35.0825 -108.8769 243° Southwest 460 529 36,000  Level Albuquerque Center
Thu 11:21:38 AM 35.0181 -109.0331 243° Southwest 459 528 36,000  Level Albuquerque Center
Thu 11:22:40 AM 34.9636 -109.1681 244° Southwest 461 531 36,000  Level Albuquerque Center
Thu 11:23:42 AM 34.9036 -109.3264 245° Southwest 461 531 36,000  Level Albuquerque Center
Thu 11:24:44 AM 34.8550 -109.4664 247° West 463 533 36,000  Level Albuquerque Center
Thu 11:25:46 AM 34.8028 -109.5997 245° Southwest 458 527 36,000  Level Albuquerque Center
Thu 11:26:48 AM 34.7428 -109.7622 246° West 466 536 36,000  Level Albuquerque Center
Thu 11:27:50 AM 34.6914 -109.9008 246° West 468 539 36,000  Level Albuquerque Center
Thu 11:28:52 AM 34.6314 -110.0661 246° West 476 548 36,000 -48 Level Albuquerque Center
Thu 11:29:54 AM 34.5806 -110.2114 247° West 483 556 35,900 -1,403 Descending Albuquerque Center
Thu 11:30:56 AM 34.5161 -110.3719 244° Southwest 477 549 33,100 -2,468 Descending Albuquerque Center
Thu 11:31:58 AM 34.4661 -110.5111 246° West 479 551 30,800 -2,129 Descending Albuquerque Center
Thu 11:33:00 AM 34.4144 -110.6503 246° West 459 528 28,700 -1,984 Descending Albuquerque Center
Thu 11:34:02 AM 34.3569 -110.7822 242° Southwest 447 514 26,700 -2,112 Descending Albuquerque Center
Thu 11:35:05 AM 34.2656 -110.9117 230° Southwest 427 491 24,300 -2,064 Descending Albuquerque Center
Thu 11:36:07 AM 34.1867 -111.0133 227° Southwest 417 480 22,400 -1,887 Descending Albuquerque Center
Thu 11:37:09 AM 34.1100 -111.1114 227° Southwest 407 468 20,400 -1,887 Descending Albuquerque Center
Thu 11:38:11 AM 34.0350 -111.2075 227° Southwest 396 456 18,500 -1,839 Descending Albuquerque Center
Thu 11:39:13 AM 33.9617 -111.3017 227° Southwest 388 447 16,600 -1,597 Descending Albuquerque Center
Thu 11:40:15 AM 33.8903 -111.3939 227° Southwest 376 433 15,200 -1,355 Descending Albuquerque Center
Thu 11:41:17 AM 33.8364 -111.4897 236° Southwest 347 399 13,800 -1,742 Descending Albuquerque Center
Thu 11:42:19 AM 33.7750 -111.6075 238° Southwest 344 396 11,600 -1,839 Descending Albuquerque Center
Thu 11:43:21 AM 33.7242 -111.7019 237° Southwest 336 387 10,000 -774 Descending Albuquerque Center
Thu 11:44:23 AM 33.6764 -111.7897 237° Southwest 314 361 10,000 -339 Level Albuquerque Center
Thu 11:45:25 AM 33.6306 -111.8736 237° Southwest 302 348 9,300 -556 Descending Albuquerque Center
Thu 11:46:11 AM 33.6000 -111.9333 238° Southwest 270 311 9,000 -792 Descending Phoenix TRACON
Thu 11:47:11 AM 33.5500 -112.0167 234° Southwest 257 296 7,900 -1,100 Descending Phoenix TRACON
Thu 11:48:11 AM 33.5333 -112.0833 253° West 256 295 6,800 -1,263 Descending Phoenix TRACON
Thu 11:49:05 AM 33.5167 -112.1667 257° West 257 296 5,500 -1,409 Descending Phoenix TRACON
Thu 11:50:06 AM 33.4667 -112.1833 196° South 223 257 4,100 -1,276 Descending Phoenix TRACON
Thu 11:51:12 AM 33.4333 -112.1333 129° Southeast 178 205 2,800 -1,000 Descending Phoenix TRACON
Thu 11:52:06 AM 33.4333 -112.0833 90° East 149 171 2,100 -737 Descending Phoenix TRACON
Thu 11:53:06 AM 33.4333 -112.0333 90° East 141 162 1,400 -700 Descending Phoenix TRACON

Login

Don't have an account? Register now (free) for customized features, flight alerts, and more!